createdAt,value
2018-03-01T00:01:34.760Z,2.42
2018-03-01T00:04:01.242Z,3.03
2018-03-01T00:06:27.728Z,2.35
2018-03-01T00:08:54.130Z,3.58
2018-03-01T00:11:20.567Z,3.05
2018-03-01T00:13:47.012Z,2.30
2018-03-01T00:16:13.440Z,3.37
2018-03-01T00:18:40.732Z,2.22
2018-03-01T00:21:07.236Z,2.72
2018-03-01T00:23:33.667Z,2.72
2018-03-01T00:26:00.061Z,2.47
2018-03-01T00:28:26.796Z,2.53
2018-03-01T00:30:53.260Z,2.95
2018-03-01T00:33:19.760Z,3.15
2018-03-01T00:35:46.305Z,3.78
2018-03-01T00:38:13.499Z,1.98
2018-03-01T00:40:39.905Z,2.17
2018-03-01T00:43:06.427Z,2.15
2018-03-01T00:45:33.017Z,1.60
2018-03-01T00:47:59.451Z,2.92
2018-03-01T00:50:25.897Z,2.00
2018-03-01T00:52:52.357Z,1.65
2018-03-01T00:55:19.780Z,1.92
2018-03-01T00:57:46.984Z,1.70
2018-03-01T01:00:13.495Z,2.20
2018-03-01T01:02:39.956Z,1.73
2018-03-01T01:05:07.105Z,2.95
2018-03-01T01:07:33.563Z,2.40
2018-03-01T01:10:00.001Z,2.50
2018-03-01T01:12:26.497Z,1.73
2018-03-01T01:14:53.674Z,2.00
2018-03-01T01:17:20.208Z,2.00
2018-03-01T01:19:46.618Z,2.62
2018-03-01T01:22:13.062Z,2.55
2018-03-01T01:24:40.258Z,2.78
2018-03-01T01:27:06.757Z,2.55
2018-03-01T01:29:33.972Z,2.42
2018-03-01T01:32:00.656Z,2.75
2018-03-01T01:34:27.101Z,2.15
2018-03-01T01:36:53.549Z,2.62
2018-03-01T01:39:20.049Z,2.33
2018-03-01T01:41:46.572Z,2.37
2018-03-01T01:44:13.799Z,2.47
2018-03-01T01:46:40.399Z,2.37
2018-03-01T01:49:06.820Z,2.30
2018-03-01T01:51:33.265Z,1.90
2018-03-01T01:53:59.758Z,2.47
2018-03-01T01:56:26.196Z,2.40
2018-03-01T01:58:52.612Z,2.90
2018-03-01T02:01:19.369Z,3.33
2018-03-01T02:03:45.875Z,2.10
2018-03-01T02:06:12.387Z,2.03
2018-03-01T02:08:38.928Z,2.37
2018-03-01T02:11:05.420Z,2.17
2018-03-01T02:13:31.897Z,2.80
2018-03-01T02:15:58.637Z,2.58
2018-03-01T02:18:25.131Z,2.50
2018-03-01T02:20:52.343Z,3.12
2018-03-01T02:23:19.042Z,1.65
2018-03-01T02:25:45.436Z,1.67
2018-03-01T02:28:11.892Z,2.20
2018-03-01T02:30:39.132Z,1.15
2018-03-01T02:33:05.612Z,2.47
2018-03-01T02:35:32.031Z,1.23
2018-03-01T02:37:58.483Z,1.87
2018-03-01T02:40:24.920Z,2.33
2018-03-01T02:42:51.386Z,1.45
2018-03-01T02:45:18.588Z,2.10
2018-03-01T02:47:44.977Z,1.85
2018-03-01T02:50:12.165Z,1.30
2018-03-01T02:52:38.914Z,2.30
2018-03-01T02:55:05.323Z,2.00
2018-03-01T02:57:32.485Z,1.58
2018-03-01T02:59:59.188Z,2.20
2018-03-01T03:02:25.673Z,2.35
2018-03-01T03:04:52.119Z,1.67
2018-03-01T03:07:18.623Z,1.75
2018-03-01T03:09:45.055Z,1.80
2018-03-01T03:12:12.258Z,1.62
2018-03-01T03:14:38.747Z,2.58
2018-03-01T03:17:06.056Z,2.15
2018-03-01T03:19:32.507Z,2.42
2018-03-01T03:21:59.015Z,1.37
2018-03-01T03:24:25.405Z,2.17
2018-03-01T03:26:51.911Z,1.80
2018-03-01T03:29:18.384Z,2.20
2018-03-01T03:31:44.774Z,1.15
2018-03-01T03:34:11.330Z,1.98
2018-03-01T03:36:37.938Z,2.37
2018-03-01T03:39:05.128Z,1.50
2018-03-01T03:41:31.637Z,1.87
2018-03-01T03:43:58.789Z,2.30
2018-03-01T03:46:25.234Z,2.00
2018-03-01T03:48:52.449Z,2.75
2018-03-01T03:51:18.985Z,1.98
2018-03-01T03:53:45.428Z,2.78
2018-03-01T03:56:11.899Z,1.35
2018-03-01T03:58:39.044Z,2.00
2018-03-01T04:01:05.624Z,2.08
2018-03-01T04:03:32.160Z,1.67
2018-03-01T04:05:59.346Z,1.50
2018-03-01T04:08:25.793Z,2.40
2018-03-01T04:10:52.305Z,2.20
2018-03-01T04:13:18.769Z,1.20
2018-03-01T04:15:45.178Z,3.08
2018-03-01T04:18:11.674Z,2.20
2018-03-01T04:20:38.192Z,1.45
2018-03-01T04:23:04.647Z,2.20
2018-03-01T04:25:31.378Z,2.00
2018-03-01T04:27:57.816Z,2.78
2018-03-01T04:30:24.227Z,2.62
2018-03-01T04:32:51.416Z,1.90
2018-03-01T04:35:17.797Z,1.33
2018-03-01T04:37:44.928Z,2.95
2018-03-01T04:40:11.434Z,1.65
2018-03-01T04:42:37.857Z,1.85
2018-03-01T04:45:04.229Z,2.87
2018-03-01T04:47:30.709Z,2.37
2018-03-01T04:49:57.340Z,1.50
2018-03-01T04:52:23.775Z,2.45
2018-03-01T04:54:50.367Z,2.05
2018-03-01T04:57:16.823Z,2.37
2018-03-01T04:59:43.220Z,2.87
2018-03-01T05:02:10.205Z,2.03
2018-03-01T05:04:37.437Z,1.95
2018-03-01T05:07:03.856Z,3.33
2018-03-01T05:09:30.549Z,2.17
2018-03-01T05:11:56.908Z,2.53
2018-03-01T05:14:23.284Z,3.00
2018-03-01T05:16:49.785Z,3.20
2018-03-01T05:19:16.256Z,1.98
2018-03-01T05:21:42.723Z,1.48
2018-03-01T05:24:09.232Z,1.52
2018-03-01T05:26:35.700Z,2.50
2018-03-01T05:29:02.224Z,2.97
2018-03-01T05:31:28.694Z,3.08
2018-03-01T05:33:55.211Z,2.80
2018-03-01T05:36:21.646Z,2.97
2018-03-01T05:38:48.374Z,2.62
2018-03-01T05:41:14.788Z,2.55
2018-03-01T05:43:42.020Z,3.17
2018-03-01T05:46:08.968Z,1.62
2018-03-01T05:48:36.098Z,3.40
2018-03-01T05:51:02.562Z,3.08
2018-03-01T05:53:29.783Z,2.42
2018-03-01T05:55:56.231Z,2.62
2018-03-01T05:58:22.624Z,3.08
2018-03-01T06:00:49.921Z,2.45
2018-03-01T06:03:16.443Z,1.45
2018-03-01T06:05:42.935Z,2.50
2018-03-01T06:08:09.438Z,2.60
2018-03-01T06:10:36.623Z,1.92
2018-03-01T06:13:03.100Z,2.47
2018-03-01T06:15:29.607Z,2.87
2018-03-01T06:17:56.045Z,3.75
2018-03-01T06:20:22.524Z,3.12
2018-03-01T06:22:49.054Z,2.92
2018-03-01T06:25:16.297Z,3.12
2018-03-01T06:27:42.704Z,3.75
2018-03-01T06:30:09.227Z,3.10
2018-03-01T06:32:36.378Z,4.57
2018-03-01T06:35:02.859Z,2.65
2018-03-01T06:37:29.304Z,2.90
2018-03-01T06:39:55.823Z,3.12
2018-03-01T06:42:22.337Z,2.83
2018-03-01T06:44:48.797Z,2.97
2018-03-01T06:47:15.209Z,2.60
2018-03-01T06:49:42.427Z,2.37
2018-03-01T06:52:09.908Z,3.25
2018-03-01T06:54:36.377Z,3.53
2018-03-01T06:57:02.789Z,3.10
2018-03-01T06:59:29.263Z,2.90
2018-03-01T07:01:55.723Z,3.80
2018-03-01T07:04:22.325Z,3.33
2018-03-01T07:06:49.600Z,4.22
2018-03-01T07:09:16.103Z,3.03
2018-03-01T07:11:42.746Z,3.85
2018-03-01T07:14:10.034Z,3.65
2018-03-01T07:16:36.497Z,3.45
2018-03-01T07:19:03.792Z,3.12
2018-03-01T07:21:30.285Z,2.62
2018-03-01T07:23:56.793Z,2.90
2018-03-01T07:26:23.338Z,4.78
2018-03-01T07:28:49.895Z,3.85
2018-03-01T07:31:16.422Z,4.45
2018-03-01T07:33:42.916Z,3.40
2018-03-01T07:36:10.131Z,3.62
2018-03-01T07:38:36.633Z,4.30
2018-03-01T07:41:03.113Z,2.92
2018-03-01T07:43:29.568Z,3.60
2018-03-01T07:45:56.754Z,3.67
2018-03-01T07:48:23.470Z,3.80
2018-03-01T07:50:50.001Z,3.55
2018-03-01T07:53:17.173Z,3.78
2018-03-01T07:55:43.802Z,3.53
2018-03-01T07:58:10.295Z,3.45
2018-03-01T08:00:36.753Z,3.62
2018-03-01T08:03:03.965Z,3.15
2018-03-01T08:05:30.500Z,3.35
2018-03-01T08:07:56.937Z,4.05
2018-03-01T08:10:23.378Z,3.22
2018-03-01T08:12:49.805Z,4.22
2018-03-01T08:15:16.265Z,2.62
2018-03-01T08:17:43.514Z,2.05
2018-03-01T08:20:09.962Z,3.47
2018-03-01T08:22:36.466Z,2.43
2018-03-01T08:25:02.978Z,3.25
2018-03-01T08:27:29.514Z,3.35
2018-03-01T08:29:56.048Z,3.30
2018-03-01T08:32:22.601Z,3.40
2018-03-01T08:34:49.041Z,4.75
2018-03-01T08:37:15.496Z,3.05
2018-03-01T08:39:41.950Z,3.20
2018-03-01T08:42:08.439Z,2.13
2018-03-01T08:44:34.921Z,3.80
2018-03-01T08:47:02.385Z,3.73
2018-03-01T08:49:28.830Z,3.80
2018-03-01T08:51:55.260Z,3.33
2018-03-01T08:54:21.902Z,3.33
2018-03-01T08:56:48.311Z,3.30
2018-03-01T08:59:14.835Z,3.70
2018-03-01T09:01:41.463Z,4.78
2018-03-01T09:04:07.832Z,4.22
2018-03-01T09:06:34.344Z,3.28
2018-03-01T09:09:01.693Z,3.40
2018-03-01T09:11:28.925Z,2.90
2018-03-01T09:13:55.472Z,2.22
2018-03-01T09:16:22.008Z,1.75
2018-03-01T09:18:48.574Z,3.08
2018-03-01T09:21:15.081Z,3.05
2018-03-01T09:23:41.751Z,3.55
2018-03-01T09:26:08.234Z,3.58
2018-03-01T09:28:34.762Z,3.28
2018-03-01T09:31:01.218Z,4.68
2018-03-01T09:33:27.904Z,3.30
2018-03-01T09:35:55.075Z,4.15
2018-03-01T09:38:21.561Z,3.33
2018-03-01T09:40:48.868Z,2.78
2018-03-01T09:43:15.420Z,3.47
2018-03-01T09:45:42.717Z,4.62
2018-03-01T09:48:09.335Z,4.75
2018-03-01T09:50:35.854Z,3.53
2018-03-01T09:53:02.362Z,3.80
2018-03-01T09:55:28.901Z,3.70
2018-03-01T09:57:55.619Z,3.90
2018-03-01T10:00:22.879Z,4.62
2018-03-01T10:02:49.526Z,3.60
2018-03-01T10:05:16.952Z,4.32
2018-03-01T10:07:43.588Z,4.10
2018-03-01T10:10:10.837Z,3.78
2018-03-01T10:12:37.967Z,3.33
2018-03-01T10:15:04.468Z,3.72
2018-03-01T10:17:31.022Z,3.70
2018-03-01T10:19:57.518Z,5.90
2018-03-01T10:22:24.021Z,3.67
2018-03-01T10:24:50.512Z,3.28
2018-03-01T10:27:17.006Z,4.50
2018-03-01T10:29:47.442Z,3.12
2018-03-01T10:32:14.645Z,3.78
2018-03-01T10:34:41.277Z,2.40
2018-03-01T10:37:07.804Z,2.53
2018-03-01T10:39:34.384Z,3.62
2018-03-01T10:42:00.769Z,2.65
2018-03-01T10:44:27.245Z,3.55
2018-03-01T10:46:53.679Z,3.97
2018-03-01T10:49:20.247Z,3.08
2018-03-01T10:51:46.778Z,2.90
2018-03-01T10:54:14.040Z,4.85
2018-03-01T10:56:40.542Z,3.67
2018-03-01T10:59:07.828Z,4.00
2018-03-01T11:01:34.450Z,3.37
2018-03-01T11:04:00.942Z,4.07
2018-03-01T11:06:27.470Z,3.87
2018-03-01T11:08:53.992Z,4.43
2018-03-01T11:11:20.933Z,2.80
2018-03-01T11:13:47.499Z,5.57
2018-03-01T11:16:14.056Z,3.78
2018-03-01T11:18:40.666Z,3.50
2018-03-01T11:21:07.669Z,4.00
2018-03-01T11:23:34.214Z,3.40
2018-03-01T11:26:01.578Z,5.23
2018-03-01T11:28:28.087Z,3.62
2018-03-01T11:30:55.282Z,2.87
2018-03-01T11:33:21.835Z,3.50
2018-03-01T11:35:48.474Z,4.15
2018-03-01T11:38:14.951Z,2.75
2018-03-01T11:40:42.148Z,3.30
2018-03-01T11:43:09.624Z,3.00
2018-03-01T11:45:36.227Z,3.42
2018-03-01T11:48:02.830Z,3.47
2018-03-01T11:50:29.453Z,3.42
2018-03-01T11:52:56.063Z,3.58
2018-03-01T11:55:22.660Z,3.50
2018-03-01T11:57:49.443Z,3.05
2018-03-01T12:00:15.914Z,6.18
2018-03-01T12:02:42.347Z,3.60
2018-03-01T12:05:09.580Z,3.67
2018-03-01T12:07:36.203Z,4.40
2018-03-01T12:10:02.872Z,4.75
2018-03-01T12:12:29.643Z,3.35
2018-03-01T12:14:56.213Z,2.55
2018-03-01T12:17:22.826Z,5.35
2018-03-01T12:19:49.359Z,4.22
2018-03-01T12:22:15.747Z,2.75
2018-03-01T12:24:42.289Z,2.92
2018-03-01T12:27:08.889Z,3.07
2018-03-01T12:29:35.556Z,2.78
2018-03-01T12:32:01.990Z,2.65
2018-03-01T12:34:28.578Z,3.12
2018-03-01T12:36:55.006Z,2.47
2018-03-01T12:39:21.542Z,2.53
2018-03-01T12:41:48.113Z,2.83
2018-03-01T12:44:15.257Z,2.53
2018-03-01T12:46:42.486Z,2.35
2018-03-01T12:49:10.064Z,3.55
2018-03-01T12:51:36.533Z,2.53
2018-03-01T12:54:03.155Z,3.53
2018-03-01T12:56:29.748Z,2.87
2018-03-01T12:58:56.281Z,2.95
2018-03-01T13:01:23.449Z,3.22
2018-03-01T13:03:51.002Z,3.60
2018-03-01T13:06:17.712Z,2.30
2018-03-01T13:08:44.359Z,3.33
2018-03-01T13:11:11.714Z,2.40
2018-03-01T13:13:38.381Z,2.65
2018-03-01T13:16:04.988Z,2.78
2018-03-01T13:18:32.410Z,3.33
2018-03-01T13:20:58.985Z,2.83
2018-03-01T13:23:26.587Z,2.53
2018-03-01T13:25:53.886Z,1.87
2018-03-01T13:28:20.465Z,2.70
2018-03-01T13:30:47.960Z,2.17
2018-03-01T13:33:20.458Z,2.00
2018-03-01T13:35:59.856Z,2.58
2018-03-01T13:38:26.342Z,3.05
2018-03-01T13:40:53.594Z,2.87
2018-03-01T13:43:20.875Z,2.70
2018-03-01T13:45:48.381Z,3.10
2018-03-01T13:48:14.868Z,2.08
2018-03-01T13:50:41.489Z,1.93
2018-03-01T13:53:08.495Z,2.28
2018-03-01T13:55:34.946Z,1.48
2018-03-01T13:58:01.405Z,2.87
2018-03-01T14:00:27.877Z,2.67
2018-03-01T14:02:54.375Z,1.92
2018-03-01T14:05:21.026Z,2.78
2018-03-01T14:07:53.783Z,1.52
2018-03-01T14:10:21.085Z,2.53
2018-03-01T14:12:47.771Z,2.93
2018-03-01T14:15:14.308Z,2.00
2018-03-01T14:17:47.654Z,2.17
2018-03-01T14:20:20.162Z,2.37
2018-03-01T14:22:50.617Z,3.12
2018-03-01T14:25:17.049Z,2.28
2018-03-01T14:27:50.591Z,1.67
2018-03-01T14:30:17.984Z,1.85
2018-03-01T14:32:44.363Z,2.40
2018-03-01T14:35:10.873Z,2.80
2018-03-01T14:37:37.301Z,2.70
2018-03-01T14:40:04.585Z,2.62
2018-03-01T14:42:31.172Z,2.53
2018-03-01T14:44:57.555Z,2.70
2018-03-01T14:47:24.039Z,2.47
2018-03-01T14:49:51.307Z,2.85
2018-03-01T14:52:17.698Z,2.67
2018-03-01T14:54:44.197Z,2.37
2018-03-01T14:57:11.434Z,2.55
2018-03-01T14:59:38.593Z,2.80
2018-03-01T15:02:05.120Z,2.58
2018-03-01T15:04:32.467Z,2.35
2018-03-01T15:06:59.905Z,4.18
2018-03-01T15:09:26.417Z,2.40
2018-03-01T15:11:52.908Z,2.85
2018-03-01T15:14:19.470Z,4.67
2018-03-01T15:16:45.976Z,2.95
2018-03-01T15:19:12.517Z,3.08
2018-03-01T15:21:38.942Z,2.78
2018-03-01T15:24:05.464Z,3.47
2018-03-01T15:26:31.893Z,2.92
2018-03-01T15:28:58.421Z,2.70
2018-03-01T15:31:25.439Z,4.97
2018-03-01T15:33:52.855Z,2.60
2018-03-01T15:36:20.095Z,2.92
2018-03-01T15:38:46.555Z,3.22
2018-03-01T15:41:12.986Z,2.50
2018-03-01T15:43:39.610Z,2.72
2018-03-01T15:46:06.757Z,2.30
2018-03-01T15:48:34.050Z,2.60
2018-03-01T15:51:00.499Z,2.65
2018-03-01T15:53:27.085Z,2.72
2018-03-01T15:55:53.653Z,2.80
2018-03-01T15:58:20.260Z,3.25
2018-03-01T16:00:46.767Z,3.35
2018-03-01T16:03:14.762Z,2.85
2018-03-01T16:05:42.057Z,3.60
2018-03-01T16:08:08.498Z,4.70
2018-03-01T16:10:35.019Z,2.75
2018-03-01T16:13:01.479Z,3.08
2018-03-01T16:15:27.898Z,2.62
2018-03-01T16:17:54.467Z,3.20
2018-03-01T16:20:20.891Z,3.28
2018-03-01T16:22:47.597Z,2.67
2018-03-01T16:25:14.414Z,4.30
2018-03-01T16:27:41.814Z,3.28
2018-03-01T16:30:08.227Z,2.80
2018-03-01T16:32:34.904Z,3.20
2018-03-01T16:35:01.384Z,3.67
2018-03-01T16:37:28.641Z,2.85
2018-03-01T16:39:55.192Z,3.47
2018-03-01T16:42:21.624Z,3.33
2018-03-01T16:44:48.058Z,3.62
2018-03-01T16:47:14.602Z,2.83
2018-03-01T16:49:41.198Z,2.90
2018-03-01T16:52:08.355Z,4.20
2018-03-01T16:54:36.443Z,3.87
2018-03-01T16:57:02.912Z,3.33
2018-03-01T16:59:29.317Z,2.70
2018-03-01T17:01:55.846Z,3.20
2018-03-01T17:04:22.310Z,3.30
2018-03-01T17:06:48.809Z,2.65
2018-03-01T17:09:15.305Z,2.78
2018-03-01T17:11:42.460Z,3.03
2018-03-01T17:14:08.928Z,3.08
2018-03-01T17:16:35.412Z,3.15
2018-03-01T17:19:01.866Z,2.83
2018-03-01T17:21:28.261Z,3.12
2018-03-01T17:23:54.777Z,3.75
2018-03-01T17:26:21.232Z,3.25
2018-03-01T17:28:47.679Z,3.75
2018-03-01T17:31:15.047Z,3.35
2018-03-01T17:33:41.585Z,4.25
2018-03-01T17:36:08.208Z,3.83
2018-03-01T17:38:34.688Z,5.70
2018-03-01T17:41:01.064Z,5.10
2018-03-01T17:43:27.467Z,4.00
2018-03-01T17:45:53.889Z,3.70
2018-03-01T17:48:20.335Z,3.90
2018-03-01T17:50:46.896Z,3.78
2018-03-01T17:53:13.277Z,3.42
2018-03-01T17:55:39.919Z,2.70
2018-03-01T17:58:06.344Z,3.90
2018-03-01T18:00:32.772Z,4.50
2018-03-01T18:02:59.292Z,4.10
2018-03-01T18:05:25.737Z,5.12
2018-03-01T18:07:52.183Z,4.90
2018-03-01T18:10:18.755Z,3.70
2018-03-01T18:12:45.208Z,4.78
2018-03-01T18:15:11.630Z,4.00
2018-03-01T18:17:38.106Z,4.68
2018-03-01T18:20:04.588Z,4.32
2018-03-01T18:22:31.048Z,3.60
2018-03-01T18:24:57.558Z,3.50
2018-03-01T18:27:25.018Z,4.20
2018-03-01T18:29:51.510Z,3.40
2018-03-01T18:32:17.966Z,5.03
2018-03-01T18:34:45.129Z,2.92
2018-03-01T18:37:12.273Z,3.80
2018-03-01T18:39:38.841Z,2.92
2018-03-01T18:42:05.273Z,3.47
2018-03-01T18:44:31.844Z,3.78
2018-03-01T18:46:58.300Z,3.47
2018-03-01T18:49:24.724Z,3.20
2018-03-01T18:51:51.911Z,3.47
2018-03-01T18:54:18.524Z,3.10
2018-03-01T18:56:45.655Z,4.43
2018-03-01T18:59:12.070Z,3.30
2018-03-01T19:01:38.508Z,3.15
2018-03-01T19:04:04.969Z,2.97
2018-03-01T19:06:31.401Z,4.57
2018-03-01T19:08:57.879Z,3.10
2018-03-01T19:11:24.526Z,4.18
2018-03-01T19:13:51.178Z,3.40
2018-03-01T19:16:17.676Z,3.35
2018-03-01T19:18:44.150Z,3.25
2018-03-01T19:21:10.592Z,3.25
2018-03-01T19:23:37.064Z,3.15
2018-03-01T19:26:04.231Z,2.80
2018-03-01T19:28:30.728Z,2.20
2018-03-01T19:30:57.233Z,2.50
2018-03-01T19:33:23.669Z,2.70
2018-03-01T19:35:50.076Z,2.37
2018-03-01T19:38:16.557Z,1.98
2018-03-01T19:40:43.822Z,2.40
2018-03-01T19:43:10.318Z,2.15
2018-03-01T19:45:36.851Z,2.25
2018-03-01T19:48:03.283Z,2.05
2018-03-01T19:50:29.721Z,1.67
2018-03-01T19:52:56.143Z,2.62
2018-03-01T19:55:22.577Z,2.25
2018-03-01T19:57:49.033Z,1.75
2018-03-01T20:00:15.513Z,2.45
2018-03-01T20:02:41.940Z,2.50
2018-03-01T20:05:09.139Z,2.00
2018-03-01T20:07:35.539Z,4.28
2018-03-01T20:10:01.985Z,2.35
2018-03-01T20:12:28.697Z,2.03
2018-03-01T20:14:55.853Z,2.00
2018-03-01T20:17:22.322Z,1.85
2018-03-01T20:19:49.404Z,2.30
2018-03-01T20:22:15.893Z,2.33
2018-03-01T20:24:42.462Z,2.37
2018-03-01T20:27:09.089Z,1.90
2018-03-01T20:29:35.520Z,2.05
2018-03-01T20:32:02.083Z,2.55
2018-03-01T20:34:28.544Z,2.10
2018-03-01T20:36:54.974Z,2.15
2018-03-01T20:39:21.416Z,2.58
2018-03-01T20:41:47.888Z,2.05
2018-03-01T20:44:14.384Z,1.85
2018-03-01T20:46:41.634Z,2.30
2018-03-01T20:49:14.013Z,2.87
2018-03-01T20:51:41.390Z,2.00
2018-03-01T20:54:07.904Z,1.87
2018-03-01T20:56:35.479Z,2.50
2018-03-01T20:59:01.899Z,2.30
2018-03-01T21:01:29.184Z,1.62
2018-03-01T21:03:55.668Z,3.25
2018-03-01T21:06:22.079Z,2.12
2018-03-01T21:08:48.564Z,1.30
2018-03-01T21:11:15.002Z,1.67
2018-03-01T21:13:41.683Z,2.00
2018-03-01T21:16:08.214Z,1.98
2018-03-01T21:18:34.726Z,2.00
2018-03-01T21:21:01.152Z,2.10
2018-03-01T21:23:27.522Z,1.83
2018-03-01T21:25:54.010Z,2.00
2018-03-01T21:28:20.403Z,1.80
2018-03-01T21:30:46.844Z,1.77
2018-03-01T21:33:13.268Z,1.90
2018-03-01T21:35:39.778Z,1.92
2018-03-01T21:38:06.250Z,2.08
2018-03-01T21:40:32.794Z,1.80
2018-03-01T21:42:59.333Z,1.40
2018-03-01T21:45:25.737Z,1.87
2018-03-01T21:47:52.182Z,2.22
2018-03-01T21:50:18.597Z,1.65
2018-03-01T21:52:45.050Z,1.70
2018-03-01T21:55:11.467Z,1.90
2018-03-01T21:57:37.882Z,1.20
2018-03-01T22:00:04.409Z,1.23
2018-03-01T22:02:31.246Z,1.45
2018-03-01T22:04:57.632Z,1.55
2018-03-01T22:07:24.093Z,1.52
2018-03-01T22:09:51.323Z,1.75
2018-03-01T22:12:17.719Z,1.02
2018-03-01T22:14:44.238Z,1.50
2018-03-01T22:17:11.038Z,1.23
2018-03-01T22:19:37.463Z,1.90
2018-03-01T22:22:03.869Z,1.30
2018-03-01T22:24:30.383Z,1.80
2018-03-01T22:26:56.862Z,1.60
2018-03-01T22:29:23.254Z,2.00
2018-03-01T22:31:49.812Z,2.10
2018-03-01T22:34:16.248Z,1.42
2018-03-01T22:36:42.632Z,1.45
2018-03-01T22:39:09.892Z,1.87
2018-03-01T22:41:37.057Z,1.70
2018-03-01T22:44:03.434Z,2.20
2018-03-01T22:46:29.876Z,1.27
2018-03-01T22:48:57.033Z,1.87
2018-03-01T22:51:23.450Z,1.95
2018-03-01T22:53:50.169Z,2.78
2018-03-01T22:56:16.598Z,1.67
2018-03-01T22:58:43.003Z,1.62
2018-03-01T23:01:09.490Z,1.12
2018-03-01T23:03:35.939Z,1.87
2018-03-01T23:06:02.409Z,2.03
2018-03-01T23:08:28.810Z,1.98
2018-03-01T23:10:55.978Z,2.15
2018-03-01T23:13:22.416Z,1.50
2018-03-01T23:15:48.949Z,2.45
2018-03-01T23:18:16.158Z,1.67
2018-03-01T23:20:43.395Z,1.35
2018-03-01T23:23:09.919Z,1.50
2018-03-01T23:25:36.378Z,1.40
2018-03-01T23:28:02.842Z,1.77
2018-03-01T23:30:29.314Z,1.98
2018-03-01T23:32:55.747Z,2.10
2018-03-01T23:35:22.196Z,1.48
2018-03-01T23:37:48.614Z,2.08
2018-03-01T23:40:15.037Z,1.73
2018-03-01T23:42:41.731Z,1.77
2018-03-01T23:45:08.142Z,1.98
2018-03-01T23:47:34.540Z,2.00
2018-03-01T23:50:01.053Z,1.20
2018-03-01T23:52:28.312Z,1.65
2018-03-01T23:54:55.491Z,1.80
2018-03-01T23:57:21.970Z,1.73
2018-03-01T23:59:48.627Z,1.70
